sensor_id;sensor_type;location;lat;lon;timestamp;P1;durP1;ratioP1;P2;durP2;ratioP2
35891;SDS011;21993;42.672;23.296;2023-04-03T00:01:22;8.53;;;3.87;;
35891;SDS011;21993;42.672;23.296;2023-04-03T00:03:48;4.97;;;3.93;;
35891;SDS011;21993;42.672;23.296;2023-04-03T00:06:13;6.67;;;3.70;;
35891;SDS011;21993;42.672;23.296;2023-04-03T00:08:39;5.67;;;3.63;;
35891;SDS011;21993;42.672;23.296;2023-04-03T00:11:05;6.57;;;4.07;;
35891;SDS011;21993;42.672;23.296;2023-04-03T00:13:32;4.93;;;3.80;;
35891;SDS011;21993;42.672;23.296;2023-04-03T00:15:58;3.60;;;3.30;;
35891;SDS011;21993;42.672;23.296;2023-04-03T00:18:23;4.70;;;3.77;;
35891;SDS011;21993;42.672;23.296;2023-04-03T00:20:49;4.20;;;3.80;;
35891;SDS011;21993;42.672;23.296;2023-04-03T00:23:14;7.07;;;3.90;;
35891;SDS011;21993;42.672;23.296;2023-04-03T00:25:40;7.63;;;4.27;;
35891;SDS011;21993;42.672;23.296;2023-04-03T00:28:05;5.07;;;3.83;;
35891;SDS011;21993;42.672;23.296;2023-04-03T00:30:31;7.80;;;3.73;;
35891;SDS011;21993;42.672;23.296;2023-04-03T00:32:57;4.83;;;3.90;;
35891;SDS011;21993;42.672;23.296;2023-04-03T00:35:23;7.83;;;3.70;;
35891;SDS011;21993;42.672;23.296;2023-04-03T00:37:53;6.13;;;3.67;;
35891;SDS011;21993;42.672;23.296;2023-04-03T00:40:21;5.70;;;4.10;;
35891;SDS011;21993;42.672;23.296;2023-04-03T00:42:48;8.33;;;3.60;;
35891;SDS011;21993;42.672;23.296;2023-04-03T00:48:05;10.40;;;4.33;;
35891;SDS011;21993;42.672;23.296;2023-04-03T00:50:33;7.27;;;3.73;;
35891;SDS011;21993;42.672;23.296;2023-04-03T00:53:03;4.90;;;3.63;;
35891;SDS011;21993;42.672;23.296;2023-04-03T00:55:31;6.03;;;3.80;;
35891;SDS011;21993;42.672;23.296;2023-04-03T00:57:57;4.77;;;3.60;;
35891;SDS011;21993;42.672;23.296;2023-04-03T01:00:25;4.33;;;3.73;;
35891;SDS011;21993;42.672;23.296;2023-04-03T01:02:51;11.27;;;4.40;;
35891;SDS011;21993;42.672;23.296;2023-04-03T01:05:17;6.50;;;3.90;;
35891;SDS011;21993;42.672;23.296;2023-04-03T01:07:45;7.00;;;4.03;;
35891;SDS011;21993;42.672;23.296;2023-04-03T01:10:13;6.23;;;3.73;;
35891;SDS011;21993;42.672;23.296;2023-04-03T01:12:41;6.07;;;3.87;;
35891;SDS011;21993;42.672;23.296;2023-04-03T01:15:13;9.17;;;4.03;;
35891;SDS011;21993;42.672;23.296;2023-04-03T01:17:55;6.37;;;3.40;;
35891;SDS011;21993;42.672;23.296;2023-04-03T01:25:35;5.17;;;2.70;;
35891;SDS011;21993;42.672;23.296;2023-04-03T01:28:22;3.90;;;2.53;;
35891;SDS011;21993;42.672;23.296;2023-04-03T01:30:50;4.60;;;3.07;;
35891;SDS011;21993;42.672;23.296;2023-04-03T01:33:37;5.57;;;2.93;;
35891;SDS011;21993;42.672;23.296;2023-04-03T01:36:03;4.90;;;2.83;;
35891;SDS011;21993;42.672;23.296;2023-04-03T01:38:29;2.80;;;2.57;;
35891;SDS011;21993;42.672;23.296;2023-04-03T01:40:55;4.47;;;2.97;;
35891;SDS011;21993;42.672;23.296;2023-04-03T01:43:21;4.73;;;3.30;;
35891;SDS011;21993;42.672;23.296;2023-04-03T01:45:46;3.73;;;3.00;;
35891;SDS011;21993;42.672;23.296;2023-04-03T01:48:12;3.97;;;3.17;;
35891;SDS011;21993;42.672;23.296;2023-04-03T01:50:38;4.27;;;3.30;;
35891;SDS011;21993;42.672;23.296;2023-04-03T01:53:04;5.87;;;2.87;;
35891;SDS011;21993;42.672;23.296;2023-04-03T01:55:29;4.77;;;3.53;;
35891;SDS011;21993;42.672;23.296;2023-04-03T01:57:55;4.70;;;3.20;;
35891;SDS011;21993;42.672;23.296;2023-04-03T02:00:20;5.07;;;3.20;;
35891;SDS011;21993;42.672;23.296;2023-04-03T02:02:46;6.90;;;3.33;;
35891;SDS011;21993;42.672;23.296;2023-04-03T02:05:11;3.10;;;2.77;;
35891;SDS011;21993;42.672;23.296;2023-04-03T02:07:36;8.37;;;3.30;;
35891;SDS011;21993;42.672;23.296;2023-04-03T02:10:02;5.47;;;3.40;;
35891;SDS011;21993;42.672;23.296;2023-04-03T02:12:28;6.33;;;3.87;;
35891;SDS011;21993;42.672;23.296;2023-04-03T02:14:53;4.07;;;3.30;;
35891;SDS011;21993;42.672;23.296;2023-04-03T02:17:18;5.90;;;3.43;;
35891;SDS011;21993;42.672;23.296;2023-04-03T02:19:44;6.20;;;3.50;;
35891;SDS011;21993;42.672;23.296;2023-04-03T02:22:09;4.40;;;3.20;;
35891;SDS011;21993;42.672;23.296;2023-04-03T02:24:35;4.30;;;3.40;;
35891;SDS011;21993;42.672;23.296;2023-04-03T02:27:01;4.53;;;3.20;;
35891;SDS011;21993;42.672;23.296;2023-04-03T02:29:26;3.43;;;3.10;;
35891;SDS011;21993;42.672;23.296;2023-04-03T02:31:52;4.50;;;3.70;;
35891;SDS011;21993;42.672;23.296;2023-04-03T02:34:17;4.80;;;3.47;;
35891;SDS011;21993;42.672;23.296;2023-04-03T02:36:43;5.97;;;4.03;;
35891;SDS011;21993;42.672;23.296;2023-04-03T02:39:09;4.97;;;3.67;;
35891;SDS011;21993;42.672;23.296;2023-04-03T02:41:34;4.57;;;3.33;;
35891;SDS011;21993;42.672;23.296;2023-04-03T02:44:01;4.07;;;3.53;;
35891;SDS011;21993;42.672;23.296;2023-04-03T02:46:27;6.83;;;4.10;;
35891;SDS011;21993;42.672;23.296;2023-04-03T02:48:53;5.70;;;3.90;;
35891;SDS011;21993;42.672;23.296;2023-04-03T02:51:18;4.70;;;3.73;;
35891;SDS011;21993;42.672;23.296;2023-04-03T02:53:44;4.97;;;3.90;;
35891;SDS011;21993;42.672;23.296;2023-04-03T02:56:09;5.07;;;3.60;;
35891;SDS011;21993;42.672;23.296;2023-04-03T02:58:35;4.60;;;4.00;;
35891;SDS011;21993;42.672;23.296;2023-04-03T03:01:00;7.47;;;3.80;;
35891;SDS011;21993;42.672;23.296;2023-04-03T03:03:26;7.67;;;4.20;;
35891;SDS011;21993;42.672;23.296;2023-04-03T03:06:00;7.40;;;4.10;;
35891;SDS011;21993;42.672;23.296;2023-04-03T03:08:36;6.37;;;4.80;;
35891;SDS011;21993;42.672;23.296;2023-04-03T03:11:02;5.67;;;4.60;;
35891;SDS011;21993;42.672;23.296;2023-04-03T03:13:28;6.23;;;4.63;;
35891;SDS011;21993;42.672;23.296;2023-04-03T03:15:53;5.87;;;4.67;;
35891;SDS011;21993;42.672;23.296;2023-04-03T03:18:19;10.07;;;5.10;;
35891;SDS011;21993;42.672;23.296;2023-04-03T03:20:45;7.90;;;4.90;;
35891;SDS011;21993;42.672;23.296;2023-04-03T03:23:10;9.20;;;5.13;;
35891;SDS011;21993;42.672;23.296;2023-04-03T03:25:39;6.93;;;5.03;;
35891;SDS011;21993;42.672;23.296;2023-04-03T03:28:05;10.33;;;5.33;;
35891;SDS011;21993;42.672;23.296;2023-04-03T03:30:31;6.80;;;5.23;;
35891;SDS011;21993;42.672;23.296;2023-04-03T03:32:56;8.33;;;5.07;;
35891;SDS011;21993;42.672;23.296;2023-04-03T03:35:22;10.80;;;7.10;;
35891;SDS011;21993;42.672;23.296;2023-04-03T03:37:47;7.63;;;6.03;;
35891;SDS011;21993;42.672;23.296;2023-04-03T03:40:12;10.10;;;5.27;;
35891;SDS011;21993;42.672;23.296;2023-04-03T03:42:38;12.47;;;5.83;;
35891;SDS011;21993;42.672;23.296;2023-04-03T03:45:04;10.73;;;5.80;;
35891;SDS011;21993;42.672;23.296;2023-04-03T03:47:30;14.03;;;6.67;;
35891;SDS011;21993;42.672;23.296;2023-04-03T03:49:55;8.53;;;6.33;;
35891;SDS011;21993;42.672;23.296;2023-04-03T03:52:21;9.07;;;5.50;;
35891;SDS011;21993;42.672;23.296;2023-04-03T03:54:46;11.47;;;5.37;;
35891;SDS011;21993;42.672;23.296;2023-04-03T03:57:12;9.07;;;5.50;;
35891;SDS011;21993;42.672;23.296;2023-04-03T03:59:37;8.50;;;5.43;;
35891;SDS011;21993;42.672;23.296;2023-04-03T04:02:03;9.03;;;5.43;;
35891;SDS011;21993;42.672;23.296;2023-04-03T04:04:28;13.37;;;6.40;;
35891;SDS011;21993;42.672;23.296;2023-04-03T04:06:54;5.97;;;4.70;;
35891;SDS011;21993;42.672;23.296;2023-04-03T04:09:19;8.53;;;5.90;;
35891;SDS011;21993;42.672;23.296;2023-04-03T04:11:45;6.07;;;5.13;;
35891;SDS011;21993;42.672;23.296;2023-04-03T04:14:10;14.70;;;7.60;;
35891;SDS011;21993;42.672;23.296;2023-04-03T04:16:37;13.47;;;7.27;;
35891;SDS011;21993;42.672;23.296;2023-04-03T04:19:02;10.87;;;7.13;;
35891;SDS011;21993;42.672;23.296;2023-04-03T04:21:28;13.43;;;7.03;;
35891;SDS011;21993;42.672;23.296;2023-04-03T04:23:53;10.73;;;6.20;;
35891;SDS011;21993;42.672;23.296;2023-04-03T04:26:19;11.90;;;6.17;;
35891;SDS011;21993;42.672;23.296;2023-04-03T04:28:45;15.10;;;7.43;;
35891;SDS011;21993;42.672;23.296;2023-04-03T04:31:10;13.60;;;7.73;;
35891;SDS011;21993;42.672;23.296;2023-04-03T04:33:36;9.90;;;6.60;;
35891;SDS011;21993;42.672;23.296;2023-04-03T04:36:01;8.73;;;6.07;;
35891;SDS011;21993;42.672;23.296;2023-04-03T04:38:26;14.27;;;6.13;;
35891;SDS011;21993;42.672;23.296;2023-04-03T04:40:52;9.53;;;6.10;;
35891;SDS011;21993;42.672;23.296;2023-04-03T04:43:17;10.37;;;6.80;;
35891;SDS011;21993;42.672;23.296;2023-04-03T04:45:43;19.33;;;9.80;;
35891;SDS011;21993;42.672;23.296;2023-04-03T04:48:08;13.77;;;8.10;;
35891;SDS011;21993;42.672;23.296;2023-04-03T04:50:34;14.00;;;7.73;;
35891;SDS011;21993;42.672;23.296;2023-04-03T04:52:59;9.47;;;6.00;;
35891;SDS011;21993;42.672;23.296;2023-04-03T04:55:25;13.67;;;6.30;;
35891;SDS011;21993;42.672;23.296;2023-04-03T04:57:50;9.07;;;5.17;;
35891;SDS011;21993;42.672;23.296;2023-04-03T05:00:16;9.70;;;6.50;;
35891;SDS011;21993;42.672;23.296;2023-04-03T05:02:42;15.33;;;6.37;;
35891;SDS011;21993;42.672;23.296;2023-04-03T05:05:08;7.03;;;5.37;;
35891;SDS011;21993;42.672;23.296;2023-04-03T05:07:33;10.00;;;6.20;;
35891;SDS011;21993;42.672;23.296;2023-04-03T05:10:00;13.73;;;6.10;;
35891;SDS011;21993;42.672;23.296;2023-04-03T05:12:26;13.80;;;5.90;;
35891;SDS011;21993;42.672;23.296;2023-04-03T05:14:51;13.33;;;6.30;;
35891;SDS011;21993;42.672;23.296;2023-04-03T05:17:16;11.43;;;6.77;;
35891;SDS011;21993;42.672;23.296;2023-04-03T05:19:42;6.60;;;5.50;;
35891;SDS011;21993;42.672;23.296;2023-04-03T05:22:07;9.33;;;6.07;;
35891;SDS011;21993;42.672;23.296;2023-04-03T05:24:33;11.47;;;6.47;;
35891;SDS011;21993;42.672;23.296;2023-04-03T05:26:58;17.60;;;6.73;;
35891;SDS011;21993;42.672;23.296;2023-04-03T05:29:24;15.27;;;8.53;;
35891;SDS011;21993;42.672;23.296;2023-04-03T05:31:49;22.13;;;11.13;;
35891;SDS011;21993;42.672;23.296;2023-04-03T05:34:15;20.53;;;10.07;;
35891;SDS011;21993;42.672;23.296;2023-04-03T05:36:41;15.07;;;9.10;;
35891;SDS011;21993;42.672;23.296;2023-04-03T05:39:07;17.63;;;10.33;;
35891;SDS011;21993;42.672;23.296;2023-04-03T05:41:33;18.03;;;9.70;;
35891;SDS011;21993;42.672;23.296;2023-04-03T05:43:58;16.73;;;9.70;;
35891;SDS011;21993;42.672;23.296;2023-04-03T05:46:24;22.47;;;10.53;;
35891;SDS011;21993;42.672;23.296;2023-04-03T05:48:49;17.97;;;11.57;;
35891;SDS011;21993;42.672;23.296;2023-04-03T05:51:16;22.67;;;11.00;;
35891;SDS011;21993;42.672;23.296;2023-04-03T05:53:43;16.93;;;10.07;;
35891;SDS011;21993;42.672;23.296;2023-04-03T05:56:11;16.70;;;10.40;;
35891;SDS011;21993;42.672;23.296;2023-04-03T05:58:36;17.50;;;9.83;;
35891;SDS011;21993;42.672;23.296;2023-04-03T06:01:02;14.50;;;9.73;;
35891;SDS011;21993;42.672;23.296;2023-04-03T06:03:27;18.37;;;9.70;;
35891;SDS011;21993;42.672;23.296;2023-04-03T06:05:53;14.43;;;9.17;;
35891;SDS011;21993;42.672;23.296;2023-04-03T06:08:18;14.83;;;10.90;;
35891;SDS011;21993;42.672;23.296;2023-04-03T06:10:44;20.93;;;10.17;;
35891;SDS011;21993;42.672;23.296;2023-04-03T06:13:10;11.43;;;9.27;;
35891;SDS011;21993;42.672;23.296;2023-04-03T06:15:36;18.53;;;9.67;;
35891;SDS011;21993;42.672;23.296;2023-04-03T06:18:03;21.50;;;10.57;;
35891;SDS011;21993;42.672;23.296;2023-04-03T06:20:28;16.23;;;11.47;;
35891;SDS011;21993;42.672;23.296;2023-04-03T06:22:53;15.90;;;11.53;;
35891;SDS011;21993;42.672;23.296;2023-04-03T06:25:19;14.60;;;10.03;;
35891;SDS011;21993;42.672;23.296;2023-04-03T06:27:44;18.63;;;9.60;;
35891;SDS011;21993;42.672;23.296;2023-04-03T06:30:10;16.50;;;9.20;;
35891;SDS011;21993;42.672;23.296;2023-04-03T06:32:36;13.00;;;7.20;;
35891;SDS011;21993;42.672;23.296;2023-04-03T06:35:02;11.37;;;7.60;;
35891;SDS011;21993;42.672;23.296;2023-04-03T06:37:29;10.73;;;7.57;;
35891;SDS011;21993;42.672;23.296;2023-04-03T06:39:55;17.13;;;8.87;;
35891;SDS011;21993;42.672;23.296;2023-04-03T06:42:21;12.37;;;8.43;;
35891;SDS011;21993;42.672;23.296;2023-04-03T06:44:47;13.57;;;8.20;;
35891;SDS011;21993;42.672;23.296;2023-04-03T06:47:13;11.77;;;8.77;;
35891;SDS011;21993;42.672;23.296;2023-04-03T06:49:40;13.10;;;9.50;;
35891;SDS011;21993;42.672;23.296;2023-04-03T06:52:06;15.60;;;9.60;;
35891;SDS011;21993;42.672;23.296;2023-04-03T06:54:32;14.47;;;8.83;;
35891;SDS011;21993;42.672;23.296;2023-04-03T06:56:58;15.57;;;8.47;;
35891;SDS011;21993;42.672;23.296;2023-04-03T06:59:23;11.63;;;7.50;;
35891;SDS011;21993;42.672;23.296;2023-04-03T07:01:49;13.53;;;8.80;;
35891;SDS011;21993;42.672;23.296;2023-04-03T07:04:15;9.93;;;8.50;;
35891;SDS011;21993;42.672;23.296;2023-04-03T07:06:41;12.40;;;7.70;;
35891;SDS011;21993;42.672;23.296;2023-04-03T07:09:07;13.57;;;8.27;;
35891;SDS011;21993;42.672;23.296;2023-04-03T07:11:34;13.20;;;9.80;;
35891;SDS011;21993;42.672;23.296;2023-04-03T07:13:59;16.17;;;10.27;;
35891;SDS011;21993;42.672;23.296;2023-04-03T07:16:25;12.23;;;9.77;;
35891;SDS011;21993;42.672;23.296;2023-04-03T07:18:50;14.37;;;9.27;;
35891;SDS011;21993;42.672;23.296;2023-04-03T07:21:16;13.30;;;8.10;;
35891;SDS011;21993;42.672;23.296;2023-04-03T07:23:41;12.60;;;7.70;;
35891;SDS011;21993;42.672;23.296;2023-04-03T07:26:07;9.97;;;5.60;;
35891;SDS011;21993;42.672;23.296;2023-04-03T07:28:33;11.13;;;5.47;;
35891;SDS011;21993;42.672;23.296;2023-04-03T07:31:03;6.20;;;5.10;;
35891;SDS011;21993;42.672;23.296;2023-04-03T07:33:31;9.70;;;5.73;;
35891;SDS011;21993;42.672;23.296;2023-04-03T07:35:57;8.27;;;5.53;;
35891;SDS011;21993;42.672;23.296;2023-04-03T07:38:23;6.30;;;4.60;;
35891;SDS011;21993;42.672;23.296;2023-04-03T07:40:50;5.80;;;4.07;;
35891;SDS011;21993;42.672;23.296;2023-04-03T07:43:17;5.33;;;4.20;;
35891;SDS011;21993;42.672;23.296;2023-04-03T07:45:45;4.27;;;3.87;;
35891;SDS011;21993;42.672;23.296;2023-04-03T07:48:12;8.77;;;4.23;;
35891;SDS011;21993;42.672;23.296;2023-04-03T07:50:39;5.63;;;4.20;;
35891;SDS011;21993;42.672;23.296;2023-04-03T07:53:05;7.27;;;4.30;;
35891;SDS011;21993;42.672;23.296;2023-04-03T07:55:31;6.20;;;4.37;;
35891;SDS011;21993;42.672;23.296;2023-04-03T07:57:57;7.77;;;5.13;;
35891;SDS011;21993;42.672;23.296;2023-04-03T08:00:22;6.67;;;5.27;;
35891;SDS011;21993;42.672;23.296;2023-04-03T08:02:50;7.67;;;6.03;;
35891;SDS011;21993;42.672;23.296;2023-04-03T08:05:19;13.47;;;6.60;;
35891;SDS011;21993;42.672;23.296;2023-04-03T08:07:46;7.33;;;6.63;;
35891;SDS011;21993;42.672;23.296;2023-04-03T08:10:12;9.23;;;7.87;;
35891;SDS011;21993;42.672;23.296;2023-04-03T08:12:38;11.57;;;7.97;;
35891;SDS011;21993;42.672;23.296;2023-04-03T08:15:04;12.47;;;7.33;;
35891;SDS011;21993;42.672;23.296;2023-04-03T08:17:31;9.40;;;7.20;;
35891;SDS011;21993;42.672;23.296;2023-04-03T08:19:56;9.23;;;6.43;;
35891;SDS011;21993;42.672;23.296;2023-04-03T08:22:22;11.40;;;7.30;;
35891;SDS011;21993;42.672;23.296;2023-04-03T08:24:47;10.93;;;8.03;;
35891;SDS011;21993;42.672;23.296;2023-04-03T08:27:12;11.07;;;8.87;;
35891;SDS011;21993;42.672;23.296;2023-04-03T08:29:38;18.30;;;9.03;;
35891;SDS011;21993;42.672;23.296;2023-04-03T08:32:04;15.50;;;9.53;;
35891;SDS011;21993;42.672;23.296;2023-04-03T08:34:30;13.00;;;7.90;;
35891;SDS011;21993;42.672;23.296;2023-04-03T08:36:59;21.77;;;12.03;;
35891;SDS011;21993;42.672;23.296;2023-04-03T08:39:25;19.07;;;11.80;;
35891;SDS011;21993;42.672;23.296;2023-04-03T08:41:50;25.77;;;12.97;;
35891;SDS011;21993;42.672;23.296;2023-04-03T08:46:56;20.03;;;11.33;;
35891;SDS011;21993;42.672;23.296;2023-04-03T08:51:51;21.10;;;13.00;;
35891;SDS011;21993;42.672;23.296;2023-04-03T08:54:23;19.13;;;11.37;;
35891;SDS011;21993;42.672;23.296;2023-04-03T08:57:00;21.00;;;11.87;;
35891;SDS011;21993;42.672;23.296;2023-04-03T08:59:29;25.53;;;13.90;;
35891;SDS011;21993;42.672;23.296;2023-04-03T09:01:59;20.20;;;12.63;;
35891;SDS011;21993;42.672;23.296;2023-04-03T09:04:30;24.23;;;13.57;;
35891;SDS011;21993;42.672;23.296;2023-04-03T09:07:00;28.43;;;13.90;;
35891;SDS011;21993;42.672;23.296;2023-04-03T09:09:35;20.20;;;13.80;;
35891;SDS011;21993;42.672;23.296;2023-04-03T09:12:17;20.67;;;14.37;;
35891;SDS011;21993;42.672;23.296;2023-04-03T09:15:06;19.50;;;13.77;;
35891;SDS011;21993;42.672;23.296;2023-04-03T09:20:23;22.57;;;12.87;;
35891;SDS011;21993;42.672;23.296;2023-04-03T09:22:55;16.70;;;11.27;;
35891;SDS011;21993;42.672;23.296;2023-04-03T09:25:30;17.17;;;11.17;;
35891;SDS011;21993;42.672;23.296;2023-04-03T09:27:59;17.50;;;9.77;;
35891;SDS011;21993;42.672;23.296;2023-04-03T09:30:25;16.97;;;10.30;;
35891;SDS011;21993;42.672;23.296;2023-04-03T09:32:52;20.53;;;10.93;;
35891;SDS011;21993;42.672;23.296;2023-04-03T09:35:26;19.47;;;10.57;;
35891;SDS011;21993;42.672;23.296;2023-04-03T09:37:55;14.33;;;8.87;;
35891;SDS011;21993;42.672;23.296;2023-04-03T09:42:50;10.13;;;7.00;;
35891;SDS011;21993;42.672;23.296;2023-04-03T09:45:33;14.73;;;7.80;;
35891;SDS011;21993;42.672;23.296;2023-04-03T09:48:07;10.50;;;5.33;;
35891;SDS011;21993;42.672;23.296;2023-04-03T09:58:45;5.63;;;4.80;;
35891;SDS011;21993;42.672;23.296;2023-04-03T10:04:09;6.47;;;4.73;;
35891;SDS011;21993;42.672;23.296;2023-04-03T10:06:41;11.47;;;5.03;;
35891;SDS011;21993;42.672;23.296;2023-04-03T10:09:16;6.07;;;4.93;;
35891;SDS011;21993;42.672;23.296;2023-04-03T10:14:34;9.70;;;5.03;;
35891;SDS011;21993;42.672;23.296;2023-04-03T10:25:12;5.63;;;4.33;;
35891;SDS011;21993;42.672;23.296;2023-04-03T10:33:23;8.67;;;4.70;;
35891;SDS011;21993;42.672;23.296;2023-04-03T10:44:59;7.13;;;5.03;;
35891;SDS011;21993;42.672;23.296;2023-04-03T10:47:28;8.47;;;4.90;;
35891;SDS011;21993;42.672;23.296;2023-04-03T10:55:37;5.80;;;3.83;;
35891;SDS011;21993;42.672;23.296;2023-04-03T10:58:14;5.77;;;4.17;;
35891;SDS011;21993;42.672;23.296;2023-04-03T11:01:08;6.47;;;3.73;;
35891;SDS011;21993;42.672;23.296;2023-04-03T11:03:39;7.33;;;3.83;;
35891;SDS011;21993;42.672;23.296;2023-04-03T11:06:10;7.63;;;4.37;;
35891;SDS011;21993;42.672;23.296;2023-04-03T11:11:26;6.40;;;3.07;;
35891;SDS011;21993;42.672;23.296;2023-04-03T11:14:05;8.13;;;2.60;;
35891;SDS011;21993;42.672;23.296;2023-04-03T11:16:42;3.37;;;2.73;;
35891;SDS011;21993;42.672;23.296;2023-04-03T11:19:14;5.23;;;2.87;;
35891;SDS011;21993;42.672;23.296;2023-04-03T11:22:08;2.90;;;2.60;;
35891;SDS011;21993;42.672;23.296;2023-04-03T11:24:36;5.00;;;3.37;;
35891;SDS011;21993;42.672;23.296;2023-04-03T11:27:08;3.93;;;2.80;;
35891;SDS011;21993;42.672;23.296;2023-04-03T11:29:42;5.37;;;3.03;;
35891;SDS011;21993;42.672;23.296;2023-04-03T11:34:37;6.53;;;3.30;;
35891;SDS011;21993;42.672;23.296;2023-04-03T11:42:42;4.67;;;3.27;;
35891;SDS011;21993;42.672;23.296;2023-04-03T11:47:56;5.60;;;3.70;;
35891;SDS011;21993;42.672;23.296;2023-04-03T12:08:45;4.70;;;3.63;;
35891;SDS011;21993;42.672;23.296;2023-04-03T12:39:51;4.93;;;4.53;;
35891;SDS011;21993;42.672;23.296;2023-04-03T12:45:23;5.47;;;4.03;;
35891;SDS011;21993;42.672;23.296;2023-04-03T12:47:51;6.57;;;4.00;;
35891;SDS011;21993;42.672;23.296;2023-04-03T12:50:22;5.50;;;4.30;;
35891;SDS011;21993;42.672;23.296;2023-04-03T12:53:05;5.27;;;4.50;;
35891;SDS011;21993;42.672;23.296;2023-04-03T12:55:32;6.73;;;4.80;;
35891;SDS011;21993;42.672;23.296;2023-04-03T12:58:03;5.87;;;4.27;;
35891;SDS011;21993;42.672;23.296;2023-04-03T13:00:38;5.43;;;4.30;;
35891;SDS011;21993;42.672;23.296;2023-04-03T13:03:05;6.77;;;4.73;;
35891;SDS011;21993;42.672;23.296;2023-04-03T13:05:32;6.93;;;4.80;;
35891;SDS011;21993;42.672;23.296;2023-04-03T13:07:59;8.83;;;5.47;;
35891;SDS011;21993;42.672;23.296;2023-04-03T13:10:28;6.37;;;4.90;;
35891;SDS011;21993;42.672;23.296;2023-04-03T13:12:55;5.07;;;4.57;;
35891;SDS011;21993;42.672;23.296;2023-04-03T13:15:26;6.60;;;4.63;;
35891;SDS011;21993;42.672;23.296;2023-04-03T13:18:04;6.90;;;5.00;;
35891;SDS011;21993;42.672;23.296;2023-04-03T13:20:31;8.83;;;5.57;;
35891;SDS011;21993;42.672;23.296;2023-04-03T13:23:04;5.03;;;4.33;;
35891;SDS011;21993;42.672;23.296;2023-04-03T13:25:34;6.40;;;5.33;;
35891;SDS011;21993;42.672;23.296;2023-04-03T13:28:02;8.07;;;5.20;;
35891;SDS011;21993;42.672;23.296;2023-04-03T13:30:31;7.07;;;5.77;;
35891;SDS011;21993;42.672;23.296;2023-04-03T13:33:03;7.10;;;5.43;;
35891;SDS011;21993;42.672;23.296;2023-04-03T13:35:36;6.00;;;5.43;;
35891;SDS011;21993;42.672;23.296;2023-04-03T13:38:27;7.37;;;5.93;;
35891;SDS011;21993;42.672;23.296;2023-04-03T13:40:54;5.63;;;5.13;;
35891;SDS011;21993;42.672;23.296;2023-04-03T13:43:24;7.07;;;6.40;;
35891;SDS011;21993;42.672;23.296;2023-04-03T13:48:26;5.87;;;5.27;;
35891;SDS011;21993;42.672;23.296;2023-04-03T13:53:34;9.63;;;6.17;;
35891;SDS011;21993;42.672;23.296;2023-04-03T13:56:07;7.13;;;6.17;;
35891;SDS011;21993;42.672;23.296;2023-04-03T13:58:51;6.60;;;6.00;;
35891;SDS011;21993;42.672;23.296;2023-04-03T14:01:20;7.30;;;6.10;;
35891;SDS011;21993;42.672;23.296;2023-04-03T14:03:56;7.97;;;6.27;;
35891;SDS011;21993;42.672;23.296;2023-04-03T14:06:24;7.53;;;6.03;;
35891;SDS011;21993;42.672;23.296;2023-04-03T14:08:49;7.67;;;6.60;;
35891;SDS011;21993;42.672;23.296;2023-04-03T14:11:20;8.30;;;5.97;;
35891;SDS011;21993;42.672;23.296;2023-04-03T14:13:48;7.37;;;5.37;;
35891;SDS011;21993;42.672;23.296;2023-04-03T14:16:15;7.70;;;5.70;;
35891;SDS011;21993;42.672;23.296;2023-04-03T14:18:44;6.30;;;5.70;;
35891;SDS011;21993;42.672;23.296;2023-04-03T14:21:13;6.30;;;5.60;;
35891;SDS011;21993;42.672;23.296;2023-04-03T14:23:40;6.40;;;5.67;;
35891;SDS011;21993;42.672;23.296;2023-04-03T14:26:11;6.83;;;6.10;;
35891;SDS011;21993;42.672;23.296;2023-04-03T14:28:38;8.10;;;6.07;;
35891;SDS011;21993;42.672;23.296;2023-04-03T14:31:05;9.13;;;5.53;;
35891;SDS011;21993;42.672;23.296;2023-04-03T14:33:30;8.97;;;6.33;;
35891;SDS011;21993;42.672;23.296;2023-04-03T14:36:00;6.47;;;4.87;;
35891;SDS011;21993;42.672;23.296;2023-04-03T14:38:28;5.90;;;5.30;;
35891;SDS011;21993;42.672;23.296;2023-04-03T14:40:56;7.33;;;5.50;;
35891;SDS011;21993;42.672;23.296;2023-04-03T14:43:23;4.83;;;4.43;;
35891;SDS011;21993;42.672;23.296;2023-04-03T14:45:49;4.80;;;4.20;;
35891;SDS011;21993;42.672;23.296;2023-04-03T14:48:17;5.87;;;4.87;;
35891;SDS011;21993;42.672;23.296;2023-04-03T14:50:46;6.10;;;5.50;;
35891;SDS011;21993;42.672;23.296;2023-04-03T14:53:12;6.40;;;4.90;;
35891;SDS011;21993;42.672;23.296;2023-04-03T14:55:39;6.00;;;4.80;;
35891;SDS011;21993;42.672;23.296;2023-04-03T14:58:12;5.07;;;4.60;;
35891;SDS011;21993;42.672;23.296;2023-04-03T15:00:40;5.87;;;4.90;;
35891;SDS011;21993;42.672;23.296;2023-04-03T15:03:08;5.00;;;4.50;;
35891;SDS011;21993;42.672;23.296;2023-04-03T15:05:38;6.40;;;5.23;;
35891;SDS011;21993;42.672;23.296;2023-04-03T15:08:03;5.13;;;4.63;;
35891;SDS011;21993;42.672;23.296;2023-04-03T15:10:29;7.40;;;4.40;;
35891;SDS011;21993;42.672;23.296;2023-04-03T15:12:56;5.67;;;4.13;;
35891;SDS011;21993;42.672;23.296;2023-04-03T15:15:23;5.27;;;4.50;;
35891;SDS011;21993;42.672;23.296;2023-04-03T15:17:52;5.23;;;4.77;;
35891;SDS011;21993;42.672;23.296;2023-04-03T15:20:21;7.70;;;4.37;;
35891;SDS011;21993;42.672;23.296;2023-04-03T15:22:48;5.23;;;4.53;;
35891;SDS011;21993;42.672;23.296;2023-04-03T15:25:14;5.10;;;4.40;;
35891;SDS011;21993;42.672;23.296;2023-04-03T15:27:40;5.30;;;4.60;;
35891;SDS011;21993;42.672;23.296;2023-04-03T15:30:07;5.20;;;4.73;;
35891;SDS011;21993;42.672;23.296;2023-04-03T15:32:36;5.23;;;4.53;;
35891;SDS011;21993;42.672;23.296;2023-04-03T15:35:01;5.03;;;4.43;;
35891;SDS011;21993;42.672;23.296;2023-04-03T15:37:27;7.90;;;5.37;;
35891;SDS011;21993;42.672;23.296;2023-04-03T15:39:52;6.80;;;5.70;;
35891;SDS011;21993;42.672;23.296;2023-04-03T15:42:18;5.80;;;5.27;;
35891;SDS011;21993;42.672;23.296;2023-04-03T15:44:43;6.30;;;4.93;;
35891;SDS011;21993;42.672;23.296;2023-04-03T15:47:08;6.37;;;5.10;;
35891;SDS011;21993;42.672;23.296;2023-04-03T15:49:34;5.50;;;4.97;;
35891;SDS011;21993;42.672;23.296;2023-04-03T15:52:00;7.20;;;6.00;;
35891;SDS011;21993;42.672;23.296;2023-04-03T15:54:26;7.70;;;5.10;;
35891;SDS011;21993;42.672;23.296;2023-04-03T15:56:52;6.10;;;5.27;;
35891;SDS011;21993;42.672;23.296;2023-04-03T15:59:18;6.10;;;5.33;;
35891;SDS011;21993;42.672;23.296;2023-04-03T16:01:44;5.87;;;4.63;;
35891;SDS011;21993;42.672;23.296;2023-04-03T16:04:10;6.40;;;4.83;;
35891;SDS011;21993;42.672;23.296;2023-04-03T16:06:36;4.97;;;4.50;;
35891;SDS011;21993;42.672;23.296;2023-04-03T16:09:02;6.77;;;5.20;;
35891;SDS011;21993;42.672;23.296;2023-04-03T16:11:29;5.40;;;4.90;;
35891;SDS011;21993;42.672;23.296;2023-04-03T16:13:55;6.53;;;5.17;;
35891;SDS011;21993;42.672;23.296;2023-04-03T16:16:21;5.60;;;5.03;;
35891;SDS011;21993;42.672;23.296;2023-04-03T16:18:48;8.03;;;5.07;;
35891;SDS011;21993;42.672;23.296;2023-04-03T16:21:14;5.30;;;4.77;;
35891;SDS011;21993;42.672;23.296;2023-04-03T16:23:42;6.10;;;4.73;;
35891;SDS011;21993;42.672;23.296;2023-04-03T16:26:07;5.47;;;4.70;;
35891;SDS011;21993;42.672;23.296;2023-04-03T16:28:34;7.20;;;5.10;;
35891;SDS011;21993;42.672;23.296;2023-04-03T16:31:00;5.67;;;5.07;;
35891;SDS011;21993;42.672;23.296;2023-04-03T16:33:26;6.43;;;5.60;;
35891;SDS011;21993;42.672;23.296;2023-04-03T16:35:52;7.40;;;6.13;;
35891;SDS011;21993;42.672;23.296;2023-04-03T16:38:18;7.83;;;5.83;;
35891;SDS011;21993;42.672;23.296;2023-04-03T16:40:44;8.67;;;5.77;;